Time;durP1;ratioP1;P1;durP2;ratioP2;P2;SDS_P1;SDS_P2;PMS_P1;PMS_P2;Temp;Humidity;BMP_temperature;BMP_pressure;BME280_temperature;BME280_humidity;BME280_pressure;Samples;Min_cycle;Max_cycle;Signal;HPM_P1;HPM_P2
2023/05/14 00:00:52;;;;;;;7.07;3.38;;;11.40;99.90;;;;;;5103130;28;20126;-74
2023/05/14 00:03:18;;;;;;;8.45;3.80;;;11.40;99.90;;;;;;5055908;28;20481;-70
2023/05/14 00:05:43;;;;;;;13.18;3.97;;;11.40;99.90;;;;;;5081947;28;20077;-66
2023/05/14 00:08:09;;;;;;;13.75;3.53;;;11.40;99.90;;;;;;5084242;28;20052;-76
2023/05/14 00:10:35;;;;;;;12.88;3.33;;;11.50;99.90;;;;;;5055958;28;20509;-75
2023/05/14 00:13:01;;;;;;;12.80;3.63;;;11.50;99.90;;;;;;5066759;28;20036;-72
2023/05/14 00:15:26;;;;;;;6.28;3.25;;;11.50;99.90;;;;;;5089774;28;20039;-67
2023/05/14 00:17:52;;;;;;;12.18;4.00;;;11.50;99.90;;;;;;5069506;28;20040;-68
2023/05/14 00:20:18;;;;;;;13.07;3.90;;;11.50;99.90;;;;;;5061415;28;20473;-70
2023/05/14 00:22:44;;;;;;;11.18;3.65;;;11.50;99.90;;;;;;5089827;28;20122;-74
2023/05/14 00:25:09;;;;;;;13.82;3.85;;;11.50;99.90;;;;;;5056397;28;20405;-73
2023/05/14 00:27:36;;;;;;;7.63;3.55;;;11.50;99.90;;;;;;5089528;28;20409;-67
2023/05/14 00:30:05;;;;;;;9.02;4.00;;;11.50;99.90;;;;;;5089693;28;20047;-69
2023/05/14 00:32:34;;;;;;;10.52;3.60;;;11.50;99.90;;;;;;5093107;28;20262;-69
2023/05/14 00:35:01;;;;;;;17.45;5.20;;;11.50;99.90;;;;;;5086580;28;20087;-73
2023/05/14 00:37:27;;;;;;;7.88;3.58;;;11.50;99.90;;;;;;5078265;28;20048;-66
2023/05/14 00:39:53;;;;;;;12.45;3.97;;;11.50;99.90;;;;;;5072610;28;20527;-69
2023/05/14 00:42:19;;;;;;;7.97;3.55;;;11.50;99.90;;;;;;5061728;27;20055;-73
2023/05/14 00:44:45;;;;;;;11.95;4.13;;;11.40;99.90;;;;;;5096390;28;20122;-75
2023/05/14 00:47:11;;;;;;;10.07;4.35;;;11.40;99.90;;;;;;5072478;28;20453;-72
2023/05/14 00:49:38;;;;;;;9.23;3.50;;;11.40;99.90;;;;;;5055464;28;20407;-67
2023/05/14 00:52:04;;;;;;;13.25;4.53;;;11.30;99.90;;;;;;5089781;28;20044;-69
2023/05/14 00:54:31;;;;;;;16.27;4.25;;;11.30;99.90;;;;;;5075061;28;20051;-67
2023/05/14 00:56:57;;;;;;;8.95;3.78;;;11.40;99.90;;;;;;5049190;28;20043;-68
2023/05/14 00:59:22;;;;;;;7.47;3.75;;;11.30;99.90;;;;;;5088694;28;20035;-67
2023/05/14 01:01:48;;;;;;;12.38;4.45;;;11.30;99.90;;;;;;5071981;28;20440;-68
2023/05/14 01:04:14;;;;;;;13.70;4.65;;;11.30;99.90;;;;;;5097621;28;20406;-67
2023/05/14 01:07:19;;;;;;;10.75;4.20;;;11.30;99.90;;;;;;5051424;28;20048;-71
2023/05/14 01:09:51;;;;;;;6.68;3.85;;;11.30;99.90;;;;;;5079646;28;20048;-69
2023/05/14 01:12:42;;;;;;;10.38;3.72;;;11.20;99.90;;;;;;5067174;28;20415;-67
2023/05/14 01:15:18;;;;;;;7.40;4.25;;;11.20;99.90;;;;;;5072844;28;20057;-66
2023/05/14 01:17:56;;;;;;;8.93;4.30;;;11.20;99.90;;;;;;5071619;28;20051;-64
2023/05/14 01:20:22;;;;;;;9.70;3.80;;;11.20;99.90;;;;;;5088927;28;20049;-70
2023/05/14 01:22:48;;;;;;;7.95;4.20;;;11.20;99.90;;;;;;5071543;28;20030;-75
2023/05/14 01:25:14;;;;;;;17.45;4.80;;;11.20;99.90;;;;;;5093414;28;20039;-74
2023/05/14 01:27:45;;;;;;;7.28;3.80;;;11.20;99.90;;;;;;5071078;28;20044;-70
2023/05/14 01:30:36;;;;;;;10.90;4.03;;;11.10;99.90;;;;;;5071840;28;20431;-66
2023/05/14 01:33:05;;;;;;;10.13;4.45;;;11.20;99.90;;;;;;5088589;28;20108;-72
2023/05/14 01:35:32;;;;;;;15.15;5.13;;;11.20;99.90;;;;;;5074156;28;20409;-75
2023/05/14 01:38:05;;;;;;;13.75;4.55;;;11.20;99.90;;;;;;5089086;28;20055;-68
2023/05/14 01:40:32;;;;;;;16.33;5.45;;;11.20;99.90;;;;;;5071365;28;20486;-66
2023/05/14 01:42:59;;;;;;;14.43;4.47;;;11.20;99.90;;;;;;5088590;28;20040;-66
2023/05/14 01:45:25;;;;;;;8.68;4.40;;;11.10;99.90;;;;;;5088077;28;20059;-69
2023/05/14 01:47:51;;;;;;;12.35;5.22;;;11.10;99.90;;;;;;5071821;28;20127;-65
2023/05/14 01:50:18;;;;;;;9.98;4.63;;;11.10;99.90;;;;;;5051778;28;20279;-65
2023/05/14 01:52:44;;;;;;;10.77;4.93;;;11.10;99.90;;;;;;5085716;28;20263;-71
2023/05/14 01:55:09;;;;;;;12.80;4.13;;;11.10;99.90;;;;;;5088313;28;20051;-71
2023/05/14 01:57:35;;;;;;;12.52;4.60;;;11.00;99.90;;;;;;5071259;28;20039;-65
2023/05/14 02:00:02;;;;;;;7.28;3.75;;;11.00;99.90;;;;;;5088235;28;20043;-68
2023/05/14 02:02:28;;;;;;;9.40;4.63;;;11.00;99.90;;;;;;5087725;28;20043;-65
2023/05/14 02:04:54;;;;;;;9.85;4.35;;;11.00;99.90;;;;;;5085786;28;20062;-67
2023/05/14 02:07:20;;;;;;;15.20;4.60;;;10.90;99.90;;;;;;5071378;28;20048;-71
2023/05/14 02:09:45;;;;;;;7.15;4.20;;;10.90;99.90;;;;;;5059386;28;20043;-69
2023/05/14 02:12:12;;;;;;;11.27;4.68;;;10.90;99.90;;;;;;5094640;28;20044;-67
2023/05/14 02:14:38;;;;;;;9.35;4.93;;;10.90;99.90;;;;;;5073721;28;20051;-69
2023/05/14 02:17:04;;;;;;;7.60;4.60;;;10.90;99.90;;;;;;5072097;28;20051;-75
2023/05/14 02:19:30;;;;;;;11.52;6.30;;;10.90;99.90;;;;;;5090728;28;20508;-75
2023/05/14 02:21:55;;;;;;;10.45;5.97;;;10.90;99.90;;;;;;5091650;28;20044;-73
2023/05/14 02:24:21;;;;;;;12.45;5.72;;;10.90;99.90;;;;;;5092216;28;20047;-68
2023/05/14 02:26:47;;;;;;;11.32;5.70;;;11.00;99.90;;;;;;5058200;28;20048;-68
2023/05/14 02:29:13;;;;;;;17.73;6.28;;;11.00;99.90;;;;;;5058758;28;20047;-68
2023/05/14 02:31:39;;;;;;;14.30;6.20;;;11.10;99.90;;;;;;5075183;28;20040;-69
2023/05/14 02:34:05;;;;;;;14.43;7.13;;;11.20;99.90;;;;;;5075396;28;20043;-70
2023/05/14 02:36:31;;;;;;;10.68;6.68;;;11.30;99.90;;;;;;5074297;28;20066;-72
2023/05/14 02:38:58;;;;;;;15.90;6.10;;;11.40;99.90;;;;;;5091681;28;20513;-65
2023/05/14 02:41:24;;;;;;;12.88;6.05;;;11.40;99.90;;;;;;5091561;28;20039;-74
2023/05/14 02:43:51;;;;;;;13.93;5.50;;;11.30;99.90;;;;;;5073666;28;20039;-66
2023/05/14 02:46:17;;;;;;;13.82;6.07;;;11.30;99.90;;;;;;5074486;28;20043;-72
2023/05/14 02:48:43;;;;;;;15.43;5.43;;;11.30;99.90;;;;;;5091022;28;20447;-74
2023/05/14 02:51:09;;;;;;;13.38;5.40;;;11.30;99.90;;;;;;5091592;28;20047;-72
2023/05/14 02:53:35;;;;;;;13.25;5.47;;;11.30;99.90;;;;;;5090846;28;20035;-70
2023/05/14 02:56:01;;;;;;;12.90;5.30;;;11.30;99.90;;;;;;5091349;28;20043;-72
2023/05/14 02:58:27;;;;;;;11.13;4.25;;;11.20;99.90;;;;;;5125336;27;20046;-68
2023/05/14 03:00:53;;;;;;;8.77;4.30;;;11.20;99.90;;;;;;5124798;27;20039;-71
2023/05/14 03:03:19;;;;;;;14.65;4.95;;;11.30;99.90;;;;;;5075413;28;20048;-65
2023/05/14 03:05:45;;;;;;;13.65;4.45;;;11.20;99.90;;;;;;5073495;28;20132;-71
2023/05/14 03:08:10;;;;;;;12.70;4.40;;;11.20;99.90;;;;;;5091434;28;20082;-65
2023/05/14 03:10:36;;;;;;;11.45;4.63;;;11.20;99.90;;;;;;5076043;28;20122;-67
2023/05/14 03:13:02;;;;;;;8.30;4.72;;;11.20;99.90;;;;;;5091466;28;20043;-73
2023/05/14 03:15:28;;;;;;;15.95;4.78;;;11.20;99.90;;;;;;5091528;28;20666;-72
2023/05/14 03:17:53;;;;;;;9.10;4.00;;;11.10;99.90;;;;;;5090685;28;20563;-66
2023/05/14 03:20:19;;;;;;;11.88;4.47;;;11.10;99.90;;;;;;5073988;28;20053;-70
2023/05/14 03:22:45;;;;;;;11.90;4.55;;;11.10;99.90;;;;;;5093425;27;20040;-65
2023/05/14 03:25:11;;;;;;;9.88;3.92;;;11.10;99.90;;;;;;5102336;28;20044;-65
2023/05/14 03:27:37;;;;;;;15.15;4.10;;;11.10;99.90;;;;;;5090368;28;20054;-66
2023/05/14 03:30:03;;;;;;;13.18;3.63;;;11.00;99.90;;;;;;5089942;28;20079;-69
2023/05/14 03:32:29;;;;;;;10.93;3.88;;;11.00;99.90;;;;;;5090616;28;20092;-66
2023/05/14 03:34:55;;;;;;;10.98;4.10;;;11.00;99.90;;;;;;5085263;28;20028;-69
2023/05/14 03:37:21;;;;;;;7.47;4.20;;;11.00;99.90;;;;;;5073727;28;20132;-70
2023/05/14 03:39:46;;;;;;;11.60;3.90;;;11.10;99.90;;;;;;5090027;28;20043;-66
2023/05/14 03:42:12;;;;;;;10.05;4.28;;;11.20;99.90;;;;;;5090302;28;20130;-68
2023/05/14 03:44:38;;;;;;;8.93;4.20;;;11.20;99.90;;;;;;5083611;27;20055;-73
2023/05/14 03:47:04;;;;;;;8.25;4.32;;;11.10;99.90;;;;;;5090895;28;20043;-69
2023/05/14 03:49:30;;;;;;;12.52;4.47;;;11.20;99.90;;;;;;5073711;28;20048;-67
2023/05/14 03:51:58;;;;;;;13.52;4.45;;;11.20;99.90;;;;;;5090286;28;20044;-68
2023/05/14 03:54:24;;;;;;;18.23;5.00;;;11.20;99.90;;;;;;5075215;28;20138;-66
2023/05/14 03:56:50;;;;;;;8.05;4.47;;;11.20;99.90;;;;;;5090057;28;20040;-66
2023/05/14 03:59:17;;;;;;;13.20;5.10;;;11.20;99.90;;;;;;5090504;28;20066;-66
2023/05/14 04:01:43;;;;;;;13.50;4.43;;;11.20;99.90;;;;;;5089370;28;20044;-65
2023/05/14 04:04:09;;;;;;;11.30;3.97;;;11.20;99.90;;;;;;5073246;28;20062;-64
2023/05/14 04:06:35;;;;;;;12.02;5.07;;;11.30;99.90;;;;;;5095096;28;20055;-67
2023/05/14 04:09:02;;;;;;;15.50;4.43;;;11.20;99.90;;;;;;5087638;28;20043;-64
2023/05/14 04:11:28;;;;;;;10.93;4.22;;;11.20;99.90;;;;;;5061022;28;20130;-71
2023/05/14 04:13:54;;;;;;;8.52;3.85;;;11.20;99.90;;;;;;5089873;28;20131;-75
2023/05/14 04:16:19;;;;;;;11.65;4.80;;;11.30;99.90;;;;;;5096614;28;20505;-70
2023/05/14 04:18:46;;;;;;;5.18;3.58;;;11.20;99.90;;;;;;5055871;28;20119;-70
2023/05/14 04:21:11;;;;;;;9.65;4.72;;;11.20;99.90;;;;;;5090152;28;20206;-71
2023/05/14 04:23:37;;;;;;;10.18;4.75;;;11.20;99.90;;;;;;5089819;28;20134;-69
2023/05/14 04:26:04;;;;;;;10.77;4.72;;;11.10;99.90;;;;;;5094400;27;20106;-66
2023/05/14 04:28:30;;;;;;;11.18;4.97;;;11.10;99.90;;;;;;5089543;28;20043;-69
2023/05/14 04:30:55;;;;;;;12.15;5.18;;;11.20;99.90;;;;;;5107540;28;20067;-67
2023/05/14 04:33:21;;;;;;;15.75;6.50;;;11.20;99.90;;;;;;5089752;28;20108;-70
2023/05/14 04:35:47;;;;;;;10.77;6.15;;;11.20;99.90;;;;;;5090573;27;20052;-64
2023/05/14 04:38:13;;;;;;;20.90;6.57;;;11.30;99.90;;;;;;5093448;28;20490;-70
2023/05/14 04:40:40;;;;;;;11.23;5.90;;;11.30;99.90;;;;;;5089652;28;20047;-67
2023/05/14 04:43:06;;;;;;;12.32;6.35;;;11.40;99.90;;;;;;5089200;28;20043;-65
2023/05/14 04:45:32;;;;;;;13.30;6.60;;;11.40;99.90;;;;;;5072781;28;20615;-68
2023/05/14 04:47:58;;;;;;;17.92;6.50;;;11.50;99.90;;;;;;5089915;28;20130;-70
2023/05/14 04:50:24;;;;;;;14.57;5.88;;;11.50;99.90;;;;;;5089241;28;20088;-68
2023/05/14 04:52:50;;;;;;;13.73;6.65;;;11.50;99.90;;;;;;5072091;28;20085;-69
2023/05/14 04:55:16;;;;;;;13.10;6.63;;;11.50;99.90;;;;;;5072370;28;20048;-69
2023/05/14 04:57:43;;;;;;;18.90;6.30;;;11.50;99.90;;;;;;5075311;27;20031;-65
2023/05/14 05:00:10;;;;;;;13.13;5.53;;;11.60;99.90;;;;;;5097854;27;20640;-68
2023/05/14 05:02:35;;;;;;;14.32;5.45;;;11.60;99.90;;;;;;5072284;28;20040;-67
2023/05/14 05:05:02;;;;;;;15.70;6.53;;;11.70;99.90;;;;;;5092044;28;20233;-69
2023/05/14 05:07:28;;;;;;;22.58;6.15;;;11.80;99.90;;;;;;5072247;28;20040;-69
2023/05/14 05:09:54;;;;;;;13.98;4.63;;;11.90;99.90;;;;;;5079304;28;20134;-68
2023/05/14 05:12:20;;;;;;;12.02;5.05;;;12.10;99.90;;;;;;5067218;28;20085;-68
2023/05/14 05:14:46;;;;;;;18.00;5.80;;;12.10;99.90;;;;;;5072177;28;20055;-68
2023/05/14 05:17:11;;;;;;;20.40;5.28;;;12.20;99.90;;;;;;5093379;28;20392;-69
2023/05/14 05:19:37;;;;;;;18.65;4.72;;;12.20;99.90;;;;;;5072594;28;20048;-67
2023/05/14 05:22:03;;;;;;;13.50;4.90;;;12.20;99.90;;;;;;5088842;28;20040;-72
2023/05/14 05:24:29;;;;;;;12.60;4.93;;;12.20;99.90;;;;;;5089119;28;20451;-69
2023/05/14 05:26:55;;;;;;;16.45;5.13;;;12.30;99.90;;;;;;5071696;28;20050;-65
2023/05/14 05:29:22;;;;;;;15.05;4.90;;;12.20;99.90;;;;;;5088464;28;20140;-67
2023/05/14 05:31:48;;;;;;;15.30;5.18;;;12.30;99.90;;;;;;5088414;28;20043;-74
2023/05/14 05:34:14;;;;;;;21.65;5.85;;;12.30;99.90;;;;;;5072403;28;20040;-65
2023/05/14 05:36:40;;;;;;;15.32;5.38;;;12.30;99.90;;;;;;5071699;28;20046;-68
2023/05/14 05:39:05;;;;;;;17.65;5.80;;;12.30;99.90;;;;;;5071809;28;20055;-65
2023/05/14 05:41:31;;;;;;;15.05;5.60;;;12.30;99.90;;;;;;5071603;28;20043;-66
2023/05/14 05:43:57;;;;;;;12.55;4.43;;;12.40;99.90;;;;;;5088651;28;20044;-65
2023/05/14 05:46:23;;;;;;;11.43;4.55;;;12.40;99.90;;;;;;5088353;28;20505;-64
2023/05/14 05:48:52;;;;;;;16.00;5.55;;;12.50;99.90;;;;;;5071498;28;20134;-67
2023/05/14 05:51:17;;;;;;;11.18;4.72;;;12.50;99.90;;;;;;5066841;28;20122;-72
2023/05/14 05:53:43;;;;;;;8.95;4.40;;;12.60;99.90;;;;;;5070999;28;20496;-66
2023/05/14 05:56:09;;;;;;;16.77;4.70;;;12.60;99.90;;;;;;5071419;28;20120;-65
2023/05/14 05:58:35;;;;;;;11.60;4.47;;;12.60;99.90;;;;;;5088531;28;20047;-70
2023/05/14 06:01:01;;;;;;;13.80;3.83;;;12.70;99.90;;;;;;5071297;28;20396;-72
2023/05/14 06:03:27;;;;;;;15.13;4.53;;;12.70;99.90;;;;;;5072533;28;20127;-68
2023/05/14 06:05:52;;;;;;;13.40;4.57;;;12.80;99.90;;;;;;5088153;28;20131;-72
2023/05/14 06:08:18;;;;;;;15.93;4.40;;;12.90;99.90;;;;;;5088242;28;20055;-64
2023/05/14 06:10:45;;;;;;;17.73;5.40;;;12.90;99.90;;;;;;5038280;28;20054;-66
2023/05/14 06:13:10;;;;;;;14.15;4.22;;;13.00;99.90;;;;;;5089010;28;20040;-71
2023/05/14 06:15:36;;;;;;;14.25;4.30;;;13.00;99.90;;;;;;5088620;28;20047;-65
2023/05/14 06:18:02;;;;;;;15.73;4.57;;;13.10;99.90;;;;;;5088043;28;20489;-65
2023/05/14 06:20:28;;;;;;;14.32;4.80;;;13.10;99.90;;;;;;5071863;28;20052;-69
2023/05/14 06:22:53;;;;;;;14.45;4.45;;;13.20;99.90;;;;;;5072449;28;20401;-73
2023/05/14 06:25:19;;;;;;;12.43;5.85;;;13.30;99.90;;;;;;5071623;28;20032;-66
2023/05/14 06:27:45;;;;;;;14.40;5.57;;;13.40;99.90;;;;;;5088075;28;20127;-65
2023/05/14 06:30:13;;;;;;;12.82;4.40;;;13.50;99.90;;;;;;5087472;28;20468;-69
2023/05/14 06:32:38;;;;;;;13.52;4.13;;;13.60;99.90;;;;;;5054364;28;20134;-71
2023/05/14 06:35:05;;;;;;;13.00;4.88;;;13.70;99.90;;;;;;5062539;28;20130;-66
2023/05/14 06:37:30;;;;;;;18.05;4.63;;;13.60;99.90;;;;;;5088611;28;20039;-70
2023/05/14 06:39:56;;;;;;;13.52;4.82;;;13.70;99.90;;;;;;5071349;28;20536;-79
2023/05/14 06:42:22;;;;;;;17.50;4.82;;;13.70;99.90;;;;;;5071537;28;20039;-64
2023/05/14 06:44:48;;;;;;;11.18;3.92;;;13.60;99.90;;;;;;5078137;28;20130;-69
2023/05/14 06:47:13;;;;;;;11.15;4.25;;;13.70;99.90;;;;;;5087756;28;20059;-70
2023/05/14 06:49:39;;;;;;;13.52;4.45;;;13.70;99.90;;;;;;5087809;28;20096;-69
2023/05/14 06:52:05;;;;;;;13.82;4.45;;;13.90;99.90;;;;;;5053964;28;20082;-68
2023/05/14 06:54:31;;;;;;;19.10;4.70;;;14.00;99.90;;;;;;5075082;28;20042;-66
2023/05/14 06:56:57;;;;;;;13.32;4.88;;;14.10;99.90;;;;;;5089388;28;20489;-66
2023/05/14 06:59:22;;;;;;;15.63;4.63;;;14.30;99.90;;;;;;5087604;28;20094;-68
2023/05/14 07:01:48;;;;;;;15.55;5.40;;;14.40;99.90;;;;;;5087650;28;20173;-69
2023/05/14 07:04:14;;;;;;;13.35;5.32;;;14.50;99.90;;;;;;5071002;28;20130;-71
2023/05/14 07:06:40;;;;;;;14.13;5.22;;;14.50;99.90;;;;;;5092119;28;20044;-65
2023/05/14 07:09:06;;;;;;;12.50;4.75;;;14.50;99.90;;;;;;5088012;28;20043;-67
2023/05/14 07:11:32;;;;;;;12.43;4.70;;;14.50;99.90;;;;;;5070599;28;20036;-67
2023/05/14 07:13:58;;;;;;;17.02;5.20;;;14.70;99.90;;;;;;5089268;28;20047;-70
2023/05/14 07:16:24;;;;;;;11.45;5.13;;;14.80;99.90;;;;;;5073513;28;20375;-70
2023/05/14 07:18:51;;;;;;;10.80;4.85;;;14.70;99.90;;;;;;5091106;28;20420;-67
2023/05/14 07:21:16;;;;;;;11.02;5.20;;;14.70;99.90;;;;;;5073817;28;20134;-67
2023/05/14 07:23:42;;;;;;;14.05;4.75;;;14.70;99.90;;;;;;5091036;28;20194;-68
2023/05/14 07:26:08;;;;;;;10.82;4.55;;;14.80;99.90;;;;;;5093085;27;20047;-71
2023/05/14 07:28:34;;;;;;;8.95;4.22;;;14.80;99.90;;;;;;5090506;28;20417;-63
2023/05/14 07:31:00;;;;;;;9.88;4.93;;;14.90;99.90;;;;;;5095628;28;20048;-71
2023/05/14 07:33:26;;;;;;;10.20;5.10;;;15.00;99.90;;;;;;5090014;28;20450;-69
2023/05/14 07:35:53;;;;;;;10.40;4.70;;;15.10;99.90;;;;;;5089152;28;20035;-65
2023/05/14 07:38:19;;;;;;;14.23;4.88;;;15.20;99.90;;;;;;5092969;27;20505;-68
2023/05/14 07:40:45;;;;;;;12.77;4.57;;;15.20;99.90;;;;;;5087617;28;20032;-65
2023/05/14 07:43:11;;;;;;;9.30;4.50;;;15.20;99.90;;;;;;5046518;28;20049;-66
2023/05/14 07:45:38;;;;;;;6.97;4.93;;;15.30;99.90;;;;;;5090247;28;20106;-65
2023/05/14 07:48:04;;;;;;;14.32;4.85;;;15.40;99.90;;;;;;5109037;28;20112;-67
2023/05/14 07:50:30;;;;;;;7.72;4.20;;;15.40;99.90;;;;;;5088648;28;20051;-65
2023/05/14 07:52:56;;;;;;;12.48;4.80;;;15.40;99.90;;;;;;5089744;28;20136;-66
2023/05/14 07:55:22;;;;;;;15.23;5.20;;;15.40;99.90;;;;;;5090113;28;20706;-60
2023/05/14 07:57:47;;;;;;;16.70;4.82;;;15.60;99.90;;;;;;5090563;28;20043;-63
2023/05/14 08:00:14;;;;;;;11.05;5.28;;;15.60;99.90;;;;;;5090158;28;20560;-67
2023/05/14 08:02:41;;;;;;;10.07;4.85;;;15.60;99.90;;;;;;5074818;28;20081;-66
2023/05/14 08:05:08;;;;;;;10.60;4.97;;;15.60;99.90;;;;;;5089087;28;20524;-62
2023/05/14 08:07:34;;;;;;;9.77;4.80;;;15.60;99.90;;;;;;5118010;27;20119;-68
2023/05/14 08:10:00;;;;;;;9.00;5.20;;;15.70;99.90;;;;;;5073251;28;20118;-66
2023/05/14 08:12:27;;;;;;;11.85;4.72;;;15.80;99.90;;;;;;5079534;27;20828;-64
2023/05/14 08:14:53;;;;;;;9.00;4.55;;;16.00;99.90;;;;;;5072701;28;20082;-64
2023/05/14 08:17:19;;;;;;;9.90;4.72;;;16.20;99.90;;;;;;5089395;28;20079;-66
2023/05/14 08:19:45;;;;;;;7.50;4.53;;;16.30;99.90;;;;;;5072846;28;20050;-65
2023/05/14 08:22:11;;;;;;;9.38;5.20;;;16.50;99.90;;;;;;5090543;27;20394;-61
2023/05/14 08:24:38;;;;;;;7.97;4.57;;;16.60;97.70;;;;;;5071864;28;20047;-68
2023/05/14 08:27:04;;;;;;;14.48;5.93;;;16.70;97.80;;;;;;5088331;28;20079;-66
2023/05/14 08:29:29;;;;;;;7.32;4.60;;;16.80;95.10;;;;;;5072042;28;20089;-65
2023/05/14 08:31:56;;;;;;;14.10;4.80;;;17.00;90.30;;;;;;5108167;28;20039;-62
2023/05/14 08:34:22;;;;;;;7.10;4.25;;;17.40;85.20;;;;;;5092251;28;20112;-67
2023/05/14 08:36:48;;;;;;;9.65;4.57;;;17.60;86.20;;;;;;5089540;28;20788;-64
2023/05/14 08:39:13;;;;;;;8.50;4.80;;;17.60;72.10;;;;;;5089111;28;20062;-71
2023/05/14 08:41:40;;;;;;;9.48;4.45;;;17.70;67.60;;;;;;5072364;28;20627;-69
2023/05/14 08:44:11;;;;;;;20.27;5.10;;;17.80;57.20;;;;;;5108888;27;20039;-60
2023/05/14 08:46:38;;;;;;;6.38;4.38;;;18.00;48.00;;;;;;5086006;28;20130;-62
2023/05/14 08:49:15;;;;;;;8.23;4.57;;;18.20;33.10;;;;;;5106929;28;20053;-62
2023/05/14 08:51:43;;;;;;;10.65;4.93;;;18.40;43.30;;;;;;5072578;28;20043;-59
2023/05/14 08:54:13;;;;;;;8.63;4.60;;;18.50;31.60;;;;;;5089524;28;20135;-61
2023/05/14 08:56:40;;;;;;;9.75;4.20;;;18.80;47.60;;;;;;5107343;28;20044;-59
2023/05/14 08:59:06;;;;;;;7.82;5.15;;;19.00;33.80;;;;;;5089377;28;20047;-64
2023/05/14 09:01:32;;;;;;;12.27;5.05;;;19.10;17.90;;;;;;5086553;28;20036;-61
2023/05/14 09:04:00;;;;;;;8.50;5.15;;;18.90;30.10;;;;;;5090179;27;20096;-60
2023/05/14 09:06:26;;;;;;;9.23;5.65;;;18.90;34.40;;;;;;5071665;28;20055;-59
2023/05/14 09:08:53;;;;;;;6.72;5.00;;;19.00;26.90;;;;;;5107061;28;20062;-64
2023/05/14 09:11:18;;;;;;;9.52;5.38;;;19.20;28.60;;;;;;5088490;28;20521;-58
2023/05/14 09:13:44;;;;;;;7.20;4.47;;;19.30;20.40;;;;;;5107326;28;20051;-58
2023/05/14 09:16:10;;;;;;;6.47;3.88;;;19.50;24.80;;;;;;5088061;28;20048;-58
2023/05/14 09:18:36;;;;;;;8.38;4.95;;;19.80;22.10;;;;;;5106192;28;20108;-64
2023/05/14 09:21:01;;;;;;;8.00;4.38;;;20.00;16.90;;;;;;5106471;28;20049;-68
2023/05/14 09:23:32;;;;;;;9.75;4.93;;;19.80;10.90;;;;;;5105532;28;20043;-64
2023/05/14 09:25:58;;;;;;;13.23;5.97;;;19.30;10.10;;;;;;5106651;28;20047;-67
2023/05/14 09:28:26;;;;;;;6.18;4.95;;;18.70;15.70;;;;;;5105242;28;20066;-65
2023/05/14 09:30:53;;;;;;;8.70;4.97;;;18.40;16.90;;;;;;5106433;28;20054;-61
2023/05/14 09:33:27;;;;;;;7.80;4.93;;;18.20;25.30;;;;;;5082085;28;20089;-70
2023/05/14 09:35:59;;;;;;;14.57;5.53;;;18.30;37.00;;;;;;5054559;28;20043;-60
2023/05/14 09:38:30;;;;;;;9.10;4.88;;;18.30;25.70;;;;;;5086846;28;20075;-64
2023/05/14 09:40:56;;;;;;;9.85;4.55;;;18.50;39.90;;;;;;5106442;28;20476;-60
2023/05/14 09:43:22;;;;;;;13.73;5.30;;;18.90;28.60;;;;;;5105130;28;20552;-62
2023/05/14 09:45:48;;;;;;;6.53;4.57;;;18.90;28.50;;;;;;5070471;28;20051;-62
2023/05/14 09:48:14;;;;;;;7.75;5.05;;;19.10;34.40;;;;;;5087632;28;20145;-60
2023/05/14 09:50:44;;;;;;;10.43;6.00;;;19.10;28.80;;;;;;5106152;28;20043;-59
2023/05/14 09:53:11;;;;;;;7.97;5.32;;;19.00;26.70;;;;;;5087940;28;20640;-65
2023/05/14 09:55:37;;;;;;;12.50;5.53;;;19.10;32.00;;;;;;5092948;28;20043;-60
2023/05/14 09:58:04;;;;;;;7.38;5.20;;;19.40;40.90;;;;;;5087687;28;20094;-65
2023/05/14 10:00:34;;;;;;;5.43;4.57;;;19.80;35.00;;;;;;5087194;28;20053;-62
2023/05/14 10:03:05;;;;;;;7.60;4.10;;;19.90;20.20;;;;;;5070569;28;20114;-60
2023/05/14 10:05:35;;;;;;;8.55;4.63;;;19.90;22.20;;;;;;5103572;28;20059;-61
2023/05/14 10:08:22;;;;;;;9.98;4.75;;;20.20;25.40;;;;;;5070883;28;20051;-68
2023/05/14 10:10:50;;;;;;;6.97;4.78;;;20.30;24.10;;;;;;5071090;28;20103;-59
2023/05/14 10:13:21;;;;;;;8.77;4.57;;;20.30;27.80;;;;;;5071468;28;20102;-63
2023/05/14 10:16:11;;;;;;;10.30;5.13;;;20.10;21.00;;;;;;5105949;28;20031;-64
2023/05/14 10:18:47;;;;;;;7.20;4.55;;;19.80;14.20;;;;;;5091896;28;20087;-64
2023/05/14 10:21:14;;;;;;;8.63;4.70;;;19.40;13.70;;;;;;5085681;28;20059;-63
2023/05/14 10:23:41;;;;;;;6.47;4.72;;;19.00;11.20;;;;;;5087492;28;20036;-62
2023/05/14 10:26:09;;;;;;;5.18;4.65;;;18.70;10.20;;;;;;5106279;28;20046;-64
2023/05/14 10:28:35;;;;;;;5.63;4.38;;;18.50;13.90;;;;;;5089802;28;20103;-60
2023/05/14 10:31:01;;;;;;;4.82;4.07;;;18.40;12.60;;;;;;5087507;28;20439;-60
2023/05/14 10:33:27;;;;;;;6.35;3.95;;;18.40;5.30;;;;;;5087706;28;20089;-58
2023/05/14 10:36:03;;;;;;;9.10;4.65;;;18.50;15.90;;;;;;5088280;28;20051;-64
2023/05/14 10:38:36;;;;;;;6.70;4.20;;;18.60;14.50;;;;;;5086883;28;20409;-61
2023/05/14 10:41:04;;;;;;;6.43;3.75;;;18.60;13.20;;;;;;5110625;28;20044;-59
2023/05/14 10:43:35;;;;;;;5.13;4.32;;;18.70;19.40;;;;;;5093221;28;20155;-58
2023/05/14 10:46:03;;;;;;;9.15;4.03;;;18.80;13.40;;;;;;5093647;28;20035;-60
2023/05/14 10:48:30;;;;;;;4.68;3.85;;;19.00;27.90;;;;;;5109343;28;20048;-59
2023/05/14 10:50:57;;;;;;;5.00;4.38;;;19.40;19.70;;;;;;5100676;28;20550;-67
2023/05/14 10:53:33;;;;;;;16.25;4.35;;;19.70;32.40;;;;;;5112765;27;20042;-59
2023/05/14 10:56:13;;;;;;;6.55;3.70;;;19.80;15.40;;;;;;5091351;28;20046;-64
2023/05/14 10:58:40;;;;;;;;;;;20.00;17.80;;;;;;5110138;28;20043;-63
2023/05/14 11:01:08;;;;;;;4.32;3.65;;;20.10;23.80;;;;;;5109781;28;20007;-60
2023/05/14 11:03:45;;;;;;;8.82;3.80;;;20.10;14.20;;;;;;5109178;28;20085;-60
2023/05/14 11:06:13;;;;;;;4.45;3.03;;;20.10;16.30;;;;;;5082134;28;20062;-58
2023/05/14 11:08:40;;;;;;;5.45;3.45;;;20.10;11.90;;;;;;5109381;28;20401;-65
2023/05/14 11:11:07;;;;;;;3.75;3.45;;;20.00;9.50;;;;;;5091328;28;20156;-64
2023/05/14 11:13:33;;;;;;;3.72;3.40;;;19.90;5.60;;;;;;5106348;28;20498;-60
2023/05/14 11:16:01;;;;;;;6.72;3.53;;;20.00;13.40;;;;;;5109271;28;20116;-58
2023/05/14 11:18:28;;;;;;;7.75;4.18;;;20.10;11.00;;;;;;5115667;27;20505;-63
2023/05/14 11:21:01;;;;;;;8.82;4.10;;;20.20;9.40;;;;;;5109270;28;20051;-63
2023/05/14 11:23:27;;;;;;;4.65;3.92;;;20.30;6.10;;;;;;5109437;28;20074;-59
2023/05/14 11:25:55;;;;;;;4.63;3.88;;;20.40;10.50;;;;;;5090673;28;20047;-63
2023/05/14 11:28:22;;;;;;;7.15;4.22;;;20.30;1.00;;;;;;5108390;28;20039;-68
2023/05/14 11:30:52;;;;;;;7.78;4.25;;;20.10;4.10;;;;;;5113662;27;20130;-62
2023/05/14 11:33:18;;;;;;;7.90;3.90;;;20.10;10.60;;;;;;5108709;28;20070;-61
2023/05/14 11:35:45;;;;;;;5.05;4.30;;;20.10;15.40;;;;;;5107889;28;20131;-59
2023/05/14 11:38:20;;;;;;;5.45;3.70;;;20.30;17.70;;;;;;5090497;28;20059;-61
2023/05/14 11:40:57;;;;;;;4.32;3.92;;;20.30;10.30;;;;;;5111509;27;20043;-62
2023/05/14 11:43:27;;;;;;;8.07;3.70;;;20.20;5.60;;;;;;5090788;28;20044;-58
2023/05/14 11:45:54;;;;;;;6.38;3.53;;;20.10;2.70;;;;;;5108602;28;20147;-58
2023/05/14 11:48:21;;;;;;;4.40;4.00;;;19.90;1.00;;;;;;5090452;28;20036;-66
2023/05/14 11:50:49;;;;;;;6.57;4.22;;;19.90;12.70;;;;;;5089280;28;20523;-62
2023/05/14 11:53:19;;;;;;;6.35;4.13;;;19.80;3.90;;;;;;5090778;28;20119;-58
2023/05/14 11:55:46;;;;;;;3.50;3.25;;;19.70;5.90;;;;;;5089991;28;20054;-64
2023/05/14 11:58:12;;;;;;;4.55;3.92;;;19.80;5.30;;;;;;5089674;28;20053;-60
2023/05/14 12:00:39;;;;;;;4.20;3.80;;;19.90;1.00;;;;;;5070601;28;20059;-62
2023/05/14 12:03:05;;;;;;;4.47;4.07;;;19.80;1.00;;;;;;5104095;28;20841;-59
2023/05/14 12:05:31;;;;;;;7.88;4.22;;;19.70;1.00;;;;;;5073147;28;20055;-61
2023/05/14 12:07:57;;;;;;;6.78;3.53;;;19.70;1.00;;;;;;5089362;28;20124;-67
2023/05/14 12:10:23;;;;;;;4.82;3.40;;;19.60;15.80;;;;;;5089448;28;20043;-63
2023/05/14 12:12:50;;;;;;;5.30;4.38;;;19.60;1.00;;;;;;5089847;28;20051;-63
2023/05/14 12:15:16;;;;;;;4.35;3.95;;;19.60;21.80;;;;;;5089980;28;20039;-61
2023/05/14 12:17:50;;;;;;;8.25;3.97;;;19.60;12.70;;;;;;5093852;27;20407;-60
2023/05/14 12:20:17;;;;;;;5.68;3.45;;;19.40;8.80;;;;;;5112479;27;20134;-64
2023/05/14 12:22:43;;;;;;;7.78;5.20;;;19.40;15.60;;;;;;5107489;28;20039;-64
2023/05/14 12:25:12;;;;;;;7.53;3.53;;;19.40;11.30;;;;;;5108249;28;20055;-69
2023/05/14 12:27:38;;;;;;;4.00;3.53;;;19.50;12.90;;;;;;5103358;28;20039;-65
2023/05/14 12:30:06;;;;;;;9.05;3.78;;;19.60;13.10;;;;;;5072336;27;20092;-64
2023/05/14 12:32:36;;;;;;;6.32;3.42;;;19.60;6.90;;;;;;5069420;27;20058;-60
2023/05/14 12:35:02;;;;;;;6.05;3.40;;;19.70;13.60;;;;;;5097745;28;20043;-63
2023/05/14 12:37:28;;;;;;;3.85;3.38;;;19.90;15.30;;;;;;5090192;28;20035;-58
2023/05/14 12:39:54;;;;;;;7.30;4.07;;;20.00;16.80;;;;;;5107222;28;20127;-66
2023/05/14 12:42:21;;;;;;;3.95;3.50;;;20.00;9.50;;;;;;5109022;27;20786;-66